Airfield :
LOGIN :

Register | Disclaimer

   EN    FR    IT 

 










Legend :    VFR   Marginal VFR   IFR   Intensive IFR   Very Intensive IFR
Visi :
Ceiling :
>= 8 km
>= 3000ft
5 to 8 km
1000 to 3000 ft
1500m to 5 km
500 to 1000 ft
800 to 1500m
200 to 500 ft
< 800m
< 200 ft
Symbols :   Thunderstorms  Fog  Heavy snow  Heavy precipitations  Wind > 20 kt
SIGMETs :     Misc.  Thunderstorms  Icing  Turbulence  Mountain Waves  Volcanic Ashes







- Airport Elevation : 1115 ft
- IATA code : GRZ


LOWG - Graz

CURRENT METAR :
  • 161750Z 22003KT 170V240 9999 FEW050 BKN120 21/16 Q1011 NOSIG

EXPIRED METARs :
  • 161720Z 29005KT 260V320 9999 FEW050 BKN140 21/16 Q1011 NOSIG
  • 161650Z 29005KT 260V320 9999 FEW050 BKN140 21/16 Q1011 NOSIG
  • 161620Z 30003KT 270V330 9999 FEW045 FEW050CB BKN120 21/17 Q1012 NOSIG
  • 161550Z 31007KT 260V340 9999 -SHRA FEW045 FEW050CB BKN070 21/16 Q1012 NOSIG
  • 161520Z 29007KT 220V360 9999 -SHRA FEW045 FEW050CB BKN060 22/16 Q1012 NOSIG

TAF TAF LOWG
Valid from the 16 at 18:00 until the 17 at 18:00 UTC


161715Z 1618/1718 VRB02KT CAVOK TX26/1715Z TN16/1703Z
TEMPO 1618/1620 9999 FEW050CB BKN120
BECMG 1706/1708 34008KT 9999 FEW060
TEMPO 1711/1717 FEW050CB SCT080
No reported NOTAMs for that airfield.



MET'MAP, your aeronautical weather chart ! - Copyright ORBIFLY December 2007 - Disclaimer

ORBIFLY MET'MAP TEAM :

Programming & Development : Alexandra Zaïnal
Concept & Development : Baudouin d'Aumeries
Co-Development & Prog : Marc-Olivier Méhu
Technical & hardware support : Manuel Goepfert

Contact : metmap@orbifly.com




SOURCES & CREDITS :

   NOAA